createdAt,value
2023-02-28T00:02:57.316Z,99523.38
2023-02-28T00:08:00.255Z,99515.69
2023-02-28T00:13:05.612Z,99519.31
2023-02-28T00:18:09.815Z,99515.97
2023-02-28T00:23:12.650Z,99509.22
2023-02-28T00:28:15.950Z,99508.50
2023-02-28T00:33:20.579Z,99506.13
2023-02-28T00:38:24.001Z,99516.78
2023-02-28T00:43:26.812Z,99516.94
2023-02-28T00:48:31.234Z,99515.31
2023-02-28T00:53:34.480Z,99510.19
2023-02-28T00:58:37.310Z,99510.22
2023-02-28T01:03:41.561Z,99513.03
2023-02-28T01:08:44.533Z,99505.28
2023-02-28T01:13:48.156Z,99503.56
2023-02-28T01:18:52.295Z,99500.13
2023-02-28T01:23:59.277Z,99500.16
2023-02-28T01:29:02.113Z,99503.56
2023-02-28T01:34:06.402Z,99506.94
2023-02-28T01:39:09.150Z,99500.72
2023-02-28T01:44:45.229Z,99500.78
2023-02-28T01:49:50.258Z,99498.31
2023-02-28T01:54:55.924Z,99493.28
2023-02-28T02:00:03.053Z,99493.34
2023-02-28T02:05:20.031Z,99493.53
2023-02-28T02:10:29.352Z,99486.69
2023-02-28T02:15:36.357Z,99487.66
2023-02-28T02:21:35.047Z,99478.28
2023-02-28T02:27:06.029Z,99474.97
2023-02-28T02:32:45.339Z,99471.59
2023-02-28T02:37:54.458Z,99471.72
2023-02-28T02:43:02.548Z,99474.41
2023-02-28T02:48:10.548Z,99473.59
2023-02-28T02:53:19.703Z,99477.28
2023-02-28T02:58:26.843Z,99472.13
2023-02-28T03:03:31.977Z,99474.81
2023-02-28T03:08:38.677Z,99479.22
2023-02-28T03:13:54.072Z,99480.19
2023-02-28T03:19:09.041Z,99483.69
2023-02-28T03:24:20.620Z,99478.47
2023-02-28T03:29:30.548Z,99476.00
2023-02-28T03:34:36.253Z,99475.19
2023-02-28T03:39:44.950Z,99469.97
2023-02-28T03:44:52.942Z,99469.16
2023-02-28T03:49:58.805Z,99470.06
2023-02-28T03:55:08.163Z,99476.25
2023-02-28T04:00:16.369Z,99475.34
2023-02-28T04:05:19.222Z,99469.38
2023-02-28T04:10:24.047Z,99479.91
2023-02-28T04:15:28.342Z,99484.31
2023-02-28T04:20:31.124Z,99480.88
2023-02-28T04:25:35.338Z,99481.00
2023-02-28T04:30:40.106Z,99481.00
2023-02-28T04:35:42.928Z,99479.38
2023-02-28T04:40:47.051Z,99487.19
2023-02-28T04:45:50.179Z,99484.59
2023-02-28T04:50:53.039Z,99490.75
2023-02-28T04:55:57.800Z,99480.28
2023-02-28T05:01:04.784Z,99480.41
2023-02-28T05:06:07.641Z,99494.31
2023-02-28T05:11:17.366Z,99496.16
2023-02-28T05:16:21.171Z,99498.94
2023-02-28T05:21:31.703Z,99494.66
2023-02-28T05:26:38.714Z,99496.53
2023-02-28T05:31:42.134Z,99500.03
2023-02-28T05:36:45.240Z,99493.19
2023-02-28T05:41:49.413Z,99505.38
2023-02-28T05:46:53.366Z,99500.16
2023-02-28T05:51:56.123Z,99502.78
2023-02-28T05:57:00.194Z,99504.50
2023-02-28T06:02:02.960Z,99505.25
2023-02-28T06:07:06.143Z,99506.97
2023-02-28T06:12:11.171Z,99502.63
2023-02-28T06:17:14.349Z,99504.28
2023-02-28T06:22:17.084Z,99511.19
2023-02-28T06:27:21.591Z,99519.88
2023-02-28T06:32:25.223Z,99524.16
2023-02-28T06:37:28.110Z,99524.84
2023-02-28T06:42:33.284Z,99527.19
2023-02-28T06:47:36.006Z,99536.59
2023-02-28T06:52:39.348Z,99528.53
2023-02-28T06:57:43.689Z,99534.25
2023-02-28T07:02:47.216Z,99538.53
2023-02-28T07:07:50.232Z,99534.59
2023-02-28T07:12:55.690Z,99543.88
2023-02-28T07:17:58.840Z,99546.94
2023-02-28T07:23:01.802Z,99549.41
2023-02-28T07:28:06.448Z,99546.41
2023-02-28T07:33:09.474Z,99538.91
2023-02-28T07:38:13.536Z,99551.00
2023-02-28T07:43:17.850Z,99539.94
2023-02-28T07:48:20.676Z,99544.06
2023-02-28T07:53:23.944Z,99538.31
2023-02-28T07:58:29.740Z,99545.28
2023-02-28T08:03:32.478Z,99539.31
2023-02-28T08:08:38.733Z,99542.59
2023-02-28T08:13:44.793Z,99534.19
2023-02-28T08:18:47.821Z,99539.81
2023-02-28T08:23:52.280Z,99536.56
2023-02-28T08:29:00.368Z,99540.78
2023-02-28T08:34:08.221Z,99529.53
2023-02-28T08:39:11.150Z,99537.75
2023-02-28T08:44:15.674Z,99535.06
2023-02-28T08:49:18.980Z,99533.66
2023-02-28T08:54:21.740Z,99537.84
2023-02-28T08:59:25.904Z,99545.16
2023-02-28T09:04:31.670Z,99545.41
2023-02-28T09:09:34.603Z,99551.22
2023-02-28T09:14:39.338Z,99548.13
2023-02-28T09:19:42.181Z,99551.59
2023-02-28T09:24:46.626Z,99544.63
2023-02-28T09:29:50.913Z,99545.53
2023-02-28T09:34:53.704Z,99542.63
2023-02-28T09:39:56.494Z,99545.56
2023-02-28T09:45:02.502Z,99557.38
2023-02-28T09:50:15.341Z,99553.34
2023-02-28T09:55:35.299Z,99547.56
2023-02-28T10:00:42.694Z,99547.09
2023-02-28T10:05:52.182Z,99544.13
2023-02-28T10:10:59.465Z,99547.78
2023-02-28T10:16:08.450Z,99540.06
2023-02-28T10:21:20.930Z,99545.91
2023-02-28T10:26:24.942Z,99544.38
2023-02-28T10:31:29.543Z,99547.25
2023-02-28T10:36:34.090Z,99544.34
2023-02-28T10:41:44.774Z,99545.19
2023-02-28T10:46:52.312Z,99539.81
2023-02-28T10:51:58.406Z,99537.44
2023-02-28T10:57:19.349Z,99544.31
2023-02-28T11:02:36.583Z,99536.19
2023-02-28T11:07:52.921Z,99555.13
2023-02-28T11:12:58.706Z,99546.69
2023-02-28T11:18:20.728Z,99544.66
2023-02-28T11:23:25.778Z,99545.97
2023-02-28T11:28:32.008Z,99546.41
2023-02-28T11:33:45.884Z,99527.69
2023-02-28T11:38:50.415Z,99528.13
2023-02-28T11:44:12.245Z,99525.50
2023-02-28T11:49:36.783Z,99531.88
2023-02-28T11:55:01.381Z,99525.31
2023-02-28T12:00:18.084Z,99516.97
2023-02-28T12:05:32.496Z,99510.69
2023-02-28T12:10:44.998Z,99516.19
2023-02-28T12:16:28.824Z,99496.38
2023-02-28T12:21:47.321Z,99506.25
2023-02-28T12:26:52.819Z,99499.88
2023-02-28T12:32:05.088Z,99503.81
2023-02-28T12:37:16.309Z,99511.09
2023-02-28T12:42:25.555Z,99498.47
2023-02-28T12:47:29.466Z,99502.00
2023-02-28T12:52:41.745Z,99495.75
2023-02-28T12:57:54.431Z,99505.03
2023-02-28T13:03:17.929Z,99487.50
2023-02-28T13:08:52.157Z,99490.47
2023-02-28T13:14:00.964Z,99475.06
2023-02-28T13:19:13.484Z,99485.59
2023-02-28T13:24:45.106Z,99479.84
2023-02-28T13:29:49.511Z,99492.19
2023-02-28T13:35:19.441Z,99492.16
2023-02-28T13:40:38.208Z,99485.66
2023-02-28T13:45:47.938Z,99485.22
2023-02-28T13:50:50.830Z,99478.78
2023-02-28T13:56:01.901Z,99482.38
2023-02-28T14:01:17.548Z,99474.63
2023-02-28T14:06:27.402Z,99476.25
2023-02-28T14:11:37.148Z,99474.66
2023-02-28T14:16:44.531Z,99464.41
2023-02-28T14:22:02.487Z,99473.75
2023-02-28T14:27:23.383Z,99466.41
2023-02-28T14:32:34.759Z,99463.91
2023-02-28T14:37:42.044Z,99460.72
2023-02-28T14:42:57.192Z,99459.56
2023-02-28T14:48:02.418Z,99460.03
2023-02-28T14:53:06.134Z,99459.63
2023-02-28T14:58:24.815Z,99449.31
2023-02-28T15:03:33.926Z,99443.53
2023-02-28T15:08:37.389Z,99443.25
2023-02-28T15:13:45.945Z,99440.94
2023-02-28T15:18:53.623Z,99439.22
2023-02-28T15:24:00.928Z,99443.38
2023-02-28T15:29:07.844Z,99445.44
2023-02-28T15:34:21.064Z,99447.44
2023-02-28T15:39:28.245Z,99449.47
2023-02-28T15:44:38.248Z,99443.41
2023-02-28T15:49:47.355Z,99446.63
2023-02-28T15:54:50.666Z,99441.91
2023-02-28T15:59:58.363Z,99442.38
2023-02-28T16:05:22.640Z,99447.13
2023-02-28T16:10:28.503Z,99452.22
2023-02-28T16:15:42.422Z,99449.78
2023-02-28T16:20:45.674Z,99453.50
2023-02-28T16:25:48.552Z,99456.06
2023-02-28T16:30:55.389Z,99458.31
2023-02-28T16:35:58.554Z,99455.88
2023-02-28T16:41:02.177Z,99459.63
2023-02-28T16:46:07.566Z,99470.59
2023-02-28T16:51:13.853Z,99478.28
2023-02-28T16:56:20.366Z,99478.31
2023-02-28T17:01:24.657Z,99484.19
2023-02-28T17:06:30.465Z,99484.88
2023-02-28T17:11:33.697Z,99489.03
2023-02-28T17:16:42.795Z,99498.38
2023-02-28T17:21:45.875Z,99508.28
2023-02-28T17:26:50.092Z,99513.22
2023-02-28T17:31:54.514Z,99518.13
2023-02-28T17:36:58.678Z,99523.06
2023-02-28T17:42:01.564Z,99528.66
2023-02-28T17:47:06.080Z,99529.13
2023-02-28T17:52:09.581Z,99536.50
2023-02-28T17:57:16.693Z,99536.72
2023-02-28T18:02:20.826Z,99543.31
2023-02-28T18:07:25.307Z,99543.66
2023-02-28T18:12:30.719Z,99534.31
2023-02-28T18:17:35.065Z,99538.22
2023-02-28T18:22:39.001Z,99535.94
2023-02-28T18:27:57.961Z,99548.53
2023-02-28T18:33:05.449Z,99551.56
2023-02-28T18:38:11.764Z,99555.38
2023-02-28T18:43:14.657Z,99546.91
2023-02-28T18:48:19.913Z,99542.78
2023-02-28T18:53:22.929Z,99536.00
2023-02-28T18:58:28.546Z,99539.66
2023-02-28T19:03:34.822Z,99546.91
2023-02-28T19:08:40.975Z,99541.97
2023-02-28T19:13:44.343Z,99547.38
2023-02-28T19:18:48.756Z,99545.78
2023-02-28T19:23:51.982Z,99554.66
2023-02-28T19:28:55.027Z,99547.78
2023-02-28T19:33:59.296Z,99548.78
2023-02-28T19:39:02.428Z,99548.84
2023-02-28T19:44:05.437Z,99558.53
2023-02-28T19:49:09.653Z,99555.94
2023-02-28T19:54:12.514Z,99561.84
2023-02-28T19:59:21.834Z,99558.97
2023-02-28T20:04:35.939Z,99565.06
2023-02-28T20:09:39.649Z,99563.25
2023-02-28T20:14:43.686Z,99550.19
2023-02-28T20:19:47.940Z,99547.56
2023-02-28T20:24:50.717Z,99554.50
2023-02-28T20:29:53.709Z,99543.94
2023-02-28T20:34:57.800Z,99545.75
2023-02-28T20:40:00.637Z,99550.09
2023-02-28T20:45:04.863Z,99550.09
2023-02-28T20:50:11.063Z,99544.78
2023-02-28T20:55:14.893Z,99547.47
2023-02-28T21:00:19.284Z,99532.75
2023-02-28T21:12:04.488Z,99540.63
2023-02-28T21:17:11.043Z,99530.34
2023-02-28T21:22:16.329Z,99537.38
2023-02-28T21:27:19.233Z,99540.09
2023-02-28T21:32:22.211Z,99541.03
2023-02-28T21:37:26.636Z,99540.34
2023-02-28T21:42:29.478Z,99544.09
2023-02-28T21:47:32.540Z,99545.91
2023-02-28T21:52:36.838Z,99543.38
2023-02-28T21:57:39.847Z,99531.41
2023-02-28T22:02:42.747Z,99534.09
2023-02-28T22:07:47.075Z,99536.91
2023-02-28T22:12:49.833Z,99547.31
2023-02-28T22:17:52.696Z,99550.84
2023-02-28T22:22:57.487Z,99560.41
2023-02-28T22:28:00.309Z,99562.16
2023-02-28T22:33:03.135Z,99560.50
2023-02-28T22:38:07.680Z,99559.59
2023-02-28T22:43:12.185Z,99557.00
2023-02-28T22:48:14.985Z,99561.41
2023-02-28T22:53:19.120Z,99553.66
2023-02-28T22:58:21.924Z,99559.78
2023-02-28T23:03:25.862Z,99563.41
2023-02-28T23:08:29.991Z,99553.00
2023-02-28T23:13:32.916Z,99567.09
2023-02-28T23:18:36.173Z,99564.72
2023-02-28T23:23:40.350Z,99571.03
2023-02-28T23:28:43.687Z,99569.28
2023-02-28T23:33:46.604Z,99568.56
2023-02-28T23:38:52.462Z,99569.38
2023-02-28T23:43:55.312Z,99559.06
2023-02-28T23:48:59.634Z,99554.75
2023-02-28T23:54:04.007Z,99551.38
2023-02-28T23:59:07.103Z,99550.50
